Time;durP1;ratioP1;P1;durP2;ratioP2;P2;SDS_P1;SDS_P2;PMS_P1;PMS_P2;Temp;Humidity;BMP_temperature;BMP_pressure;BME280_temperature;BME280_humidity;BME280_pressure;Samples;Min_cycle;Max_cycle;Signal;HPM_P1;HPM_P2
2022/06/10 00:00:19;;;;;;;9.70;7.57;;;;;;;22.01;63.33;99139.66;5124945;27;20088;-46
2022/06/10 00:02:45;;;;;;;14.25;7.50;;;;;;;22.01;63.44;99139.66;5129699;27;20087;-49
2022/06/10 00:05:15;;;;;;;12.60;6.95;;;;;;;21.98;63.60;99139.94;5114884;27;20129;-48
2022/06/10 00:07:41;;;;;;;15.40;7.55;;;;;;;21.93;63.63;99140.31;5114891;27;20050;-49
2022/06/10 00:10:09;;;;;;;10.73;7.00;;;;;;;21.91;63.49;99138.78;5121001;27;20436;-48
2022/06/10 00:12:35;;;;;;;13.57;7.43;;;;;;;21.89;63.51;99138.91;5117269;27;20418;-49
2022/06/10 00:15:01;;;;;;;10.38;7.53;;;;;;;21.82;63.07;99134.31;5113539;28;20044;-57
2022/06/10 00:17:28;;;;;;;9.07;7.22;;;;;;;21.90;62.86;99147.69;5114695;27;20039;-49
2022/06/10 00:19:55;;;;;;;9.32;6.95;;;;;;;21.90;62.60;99137.94;5127750;27;20451;-51
2022/06/10 00:22:21;;;;;;;9.73;6.85;;;;;;;21.90;62.78;99145.88;5132429;27;20047;-47
2022/06/10 00:24:47;;;;;;;10.50;7.15;;;;;;;21.89;62.88;99143.38;5126619;27;20088;-52
2022/06/10 00:27:13;;;;;;;10.93;7.28;;;;;;;21.87;62.76;99147.97;5120567;27;20042;-49
2022/06/10 00:29:39;;;;;;;12.02;7.43;;;;;;;21.87;62.65;99142.69;5121585;27;20054;-51
2022/06/10 00:32:06;;;;;;;9.48;7.10;;;;;;;21.85;62.50;99157.84;5123563;27;20058;-50
2022/06/10 00:34:35;;;;;;;8.32;6.30;;;;;;;21.81;62.28;99159.94;5119913;27;20035;-50
2022/06/10 00:37:04;;;;;;;10.40;7.18;;;;;;;21.78;61.80;99159.34;5121553;27;20125;-47
2022/06/10 00:39:30;;;;;;;35.50;24.45;;;;;;;21.77;61.55;99155.88;5131104;27;20418;-47
2022/06/10 00:41:56;;;;;;;8.15;6.70;;;;;;;21.78;61.65;99157.56;5112306;27;20039;-52
2022/06/10 00:44:44;;;;;;;10.00;7.22;;;;;;;21.79;61.70;99166.34;5113878;27;20485;-47
2022/06/10 00:47:20;;;;;;;10.18;6.90;;;;;;;21.78;61.79;99169.94;5110260;27;20055;-49
2022/06/10 00:49:51;;;;;;;11.23;8.10;;;;;;;21.76;61.89;99167.47;5124132;27;20046;-49
2022/06/10 00:52:34;;;;;;;8.20;6.60;;;;;;;21.75;61.93;99176.34;5129607;27;20043;-49
2022/06/10 00:55:00;;;;;;;8.35;6.63;;;;;;;21.75;61.71;99181.66;5115701;27;20100;-50
2022/06/10 00:57:31;;;;;;;11.63;7.35;;;;;;;21.77;61.69;99190.28;5112278;27;20039;-49
2022/06/10 01:00:09;;;;;;;8.18;6.55;;;;;;;21.78;61.49;99191.13;5112404;27;20440;-47
2022/06/10 01:02:36;;;;;;;8.52;7.35;;;;;;;21.66;61.38;99171.03;5115886;27;20452;-52
2022/06/10 01:05:09;;;;;;;12.73;7.45;;;;;;;21.78;61.70;99191.94;5122365;27;20126;-51
2022/06/10 01:07:38;;;;;;;8.80;6.68;;;;;;;21.80;61.58;99200.59;5120386;27;20043;-49
2022/06/10 01:10:06;;;;;;;;;;;;;;;21.79;61.64;99208.66;5121540;27;20035;-49
2022/06/10 01:12:44;;;;;;;7.82;6.28;;;;;;;21.72;63.12;99210.19;5113903;27;19921;-49
2022/06/10 01:15:32;;;;;;;9.20;6.72;;;;;;;21.54;65.84;99189.66;5130102;27;20039;-48
2022/06/10 01:18:20;;;;;;;17.40;8.10;;;;;;;21.36;69.14;99201.00;5114558;27;20035;-50
2022/06/10 01:21:03;;;;;;;23.40;9.50;;;;;;;21.07;73.95;99195.53;5111428;28;20039;-49
2022/06/10 01:23:50;;;;;;;13.77;9.50;;;;;;;20.86;77.93;99192.91;5129234;27;20070;-47
2022/06/10 01:26:31;;;;;;;14.82;9.13;;;;;;;20.72;80.72;99195.88;5116287;27;20046;-48
2022/06/10 01:29:15;;;;;;;15.23;8.75;;;;;;;20.64;82.60;99196.50;5111932;28;20457;-47
2022/06/10 01:31:53;;;;;;;11.70;9.65;;;;;;;20.59;84.92;99196.06;5110621;28;20057;-48
2022/06/10 01:34:35;;;;;;;14.60;10.27;;;;;;;20.59;86.72;99205.78;5093816;28;20070;-51
2022/06/10 01:37:11;;;;;;;13.75;10.30;;;;;;;20.60;87.77;99194.25;5127799;27;20123;-49
2022/06/10 01:40:08;;;;;;;13.55;9.50;;;;;;;20.61;88.99;99195.94;5107320;27;20046;-51
2022/06/10 01:42:52;;;;;;;13.88;9.50;;;;;;;20.60;89.41;99194.25;5114977;28;20081;-52
2022/06/10 01:45:28;;;;;;;12.30;9.80;;;;;;;20.63;90.06;99192.19;5128205;27;20070;-48
2022/06/10 01:48:01;;;;;;;11.25;10.05;;;;;;;20.67;90.29;99200.72;5131162;27;20045;-51
2022/06/10 01:50:38;;;;;;;14.68;10.38;;;;;;;20.66;91.21;99193.75;5131135;27;20035;-49
2022/06/10 01:53:16;;;;;;;10.88;9.57;;;;;;;20.66;91.70;99194.59;5132536;27;20501;-51
2022/06/10 01:55:54;;;;;;;12.57;9.07;;;;;;;20.71;90.79;99200.31;5131646;27;20103;-51
2022/06/10 01:58:40;;;;;;;12.43;9.50;;;;;;;20.75;90.54;99198.25;5130982;27;20284;-48
2022/06/10 02:01:10;;;;;;;10.73;9.52;;;;;;;20.75;90.40;99200.06;5113794;27;20031;-50
2022/06/10 02:03:49;;;;;;;11.85;9.70;;;;;;;20.74;90.03;99201.84;5128294;27;20111;-49
2022/06/10 02:06:20;;;;;;;12.77;9.73;;;;;;;20.68;90.08;99197.94;5120057;28;20047;-51
2022/06/10 02:08:53;;;;;;;13.20;10.40;;;;;;;20.63;90.53;99199.28;5119796;28;20043;-48
2022/06/10 02:11:21;;;;;;;12.25;9.90;;;;;;;20.55;90.94;99197.28;5112882;28;20051;-50
2022/06/10 02:13:54;;;;;;;11.33;10.23;;;;;;;20.54;91.00;99205.31;5111132;28;20084;-50
2022/06/10 02:16:23;;;;;;;12.77;10.23;;;;;;;20.51;91.96;99209.06;5117850;28;20301;-48
2022/06/10 02:18:51;;;;;;;;;;;;;;;20.51;92.42;99214.34;5132121;27;20039;-51
2022/06/10 02:21:31;;;;;;;13.07;11.05;;;;;;;20.43;92.30;99203.56;5121222;28;19923;-49
2022/06/10 02:24:24;;;;;;;12.40;11.10;;;;;;;20.47;93.73;99218.19;5113694;28;20051;-53
2022/06/10 02:26:50;;;;;;;12.68;10.82;;;;;;;20.48;93.94;99224.31;5125192;28;20050;-52
2022/06/10 02:29:24;;;;;;;14.35;11.52;;;;;;;20.48;94.57;99217.22;5128641;28;20559;-50
2022/06/10 02:31:56;;;;;;;15.40;11.40;;;;;;;20.53;95.27;99220.34;5130204;28;20478;-52
2022/06/10 02:34:22;;;;;;;14.32;11.35;;;;;;;20.63;96.07;99223.03;5127603;28;20035;-52
2022/06/10 02:36:47;;;;;;;12.40;10.93;;;;;;;20.73;96.46;99225.78;5111450;28;20036;-49
2022/06/10 02:39:21;;;;;;;13.20;11.80;;;;;;;20.82;96.70;99225.84;5127066;28;20034;-49
2022/06/10 02:41:50;;;;;;;11.50;10.35;;;;;;;20.91;96.22;99221.59;5112137;28;20044;-49
2022/06/10 02:44:18;;;;;;;;;;;;;;;20.97;95.27;99216.63;5110510;28;20067;-50
2022/06/10 02:47:25;;;;;;;13.75;11.10;;;;;;;21.02;94.21;99224.16;5127194;28;19926;-48
2022/06/10 02:49:52;;;;;;;14.18;9.90;;;;;;;20.94;93.75;99210.75;5111913;28;20051;-51
2022/06/10 02:52:19;;;;;;;12.20;9.88;;;;;;;20.96;92.87;99222.88;5121156;28;20498;-49
2022/06/10 02:54:45;;;;;;;11.30;9.50;;;;;;;20.95;92.03;99221.19;5111443;28;20071;-48
2022/06/10 02:57:15;;;;;;;10.10;8.10;;;;;;;20.95;90.24;99225.63;5125895;27;20078;-47
2022/06/10 03:03:06;;;;;;;14.30;9.82;;;;;;;20.91;88.88;99214.50;5133626;27;20070;-51
2022/06/10 03:05:40;;;;;;;10.50;9.35;;;;;;;20.92;89.15;99217.97;5132012;27;20104;-51
2022/06/10 03:08:23;;;;;;;11.35;10.25;;;;;;;20.87;89.65;99214.91;5140028;27;20088;-49
2022/06/10 03:11:04;;;;;;;13.70;11.20;;;;;;;20.78;91.00;99226.25;5133700;27;20581;-49
2022/06/10 03:13:57;;;;;;;12.40;10.93;;;;;;;20.68;92.15;99231.44;5133856;27;20114;-51
2022/06/10 03:16:30;;;;;;;12.77;10.13;;;;;;;20.61;92.33;99225.00;5135018;27;20045;-49
2022/06/10 03:19:16;;;;;;;13.95;9.75;;;;;;;20.56;91.67;99227.19;5135002;27;20088;-49
2022/06/10 03:21:54;;;;;;;11.13;9.52;;;;;;;20.53;90.35;99222.97;5114218;27;20039;-48
2022/06/10 03:24:41;;;;;;;11.63;10.05;;;;;;;20.52;90.82;99229.22;5114378;28;20039;-50
2022/06/10 03:27:18;;;;;;;16.02;10.73;;;;;;;20.52;91.26;99231.84;5114529;28;20043;-48
2022/06/10 03:29:52;;;;;;;14.57;10.65;;;;;;;20.52;91.82;99231.00;5113373;27;20039;-50
2022/06/10 03:32:36;;;;;;;12.23;10.98;;;;;;;20.52;92.84;99228.38;5112850;28;20086;-48
2022/06/10 03:35:07;;;;;;;10.65;9.60;;;;;;;20.51;92.55;99230.22;5124476;27;20154;-47
2022/06/10 03:37:33;;;;;;;12.45;8.80;;;;;;;20.54;91.40;99229.09;5132611;27;20088;-50
2022/06/10 03:39:59;;;;;;;14.50;10.38;;;;;;;20.55;90.26;99223.69;5128839;27;20383;-49
2022/06/10 03:42:26;;;;;;;11.65;9.32;;;;;;;20.62;89.92;99227.50;5115107;27;20044;-51
2022/06/10 03:44:55;;;;;;;12.80;10.10;;;;;;;20.71;89.74;99236.47;5114158;28;20058;-50
2022/06/10 03:47:33;;;;;;;13.45;10.27;;;;;;;20.68;89.64;99219.06;5114924;27;20042;-49
2022/06/10 03:50:08;;;;;;;16.08;10.95;;;;;;;20.78;89.71;99234.16;5124676;27;20045;-49
2022/06/10 03:52:37;;;;;;;11.90;9.65;;;;;;;20.81;89.27;99232.09;5131521;27;20035;-52
2022/06/10 03:55:04;;;;;;;13.82;9.50;;;;;;;20.85;88.48;99227.38;5130744;27;20044;-52
2022/06/10 03:57:30;;;;;;;10.98;9.00;;;;;;;20.84;87.10;99226.53;5132880;27;20455;-48
2022/06/10 03:59:56;;;;;;;12.85;9.63;;;;;;;20.80;86.27;99214.56;5122554;27;20070;-49
2022/06/10 04:02:21;;;;;;;11.02;9.10;;;;;;;20.87;85.77;99230.75;5118789;27;20491;-48
2022/06/10 04:04:47;;;;;;;12.35;9.73;;;;;;;20.88;85.53;99229.78;5113690;27;20456;-47
2022/06/10 04:07:15;;;;;;;11.32;9.63;;;;;;;20.87;85.58;99234.22;5121136;27;20043;-51
2022/06/10 04:09:41;;;;;;;12.02;9.82;;;;;;;20.89;85.95;99223.50;5115208;27;20082;-50
2022/06/10 04:12:08;;;;;;;12.82;9.85;;;;;;;20.87;86.48;99214.91;5114331;27;20036;-48
2022/06/10 04:14:33;;;;;;;16.48;10.65;;;;;;;20.93;87.02;99231.06;5116300;27;20050;-49
2022/06/10 04:17:00;;;;;;;13.65;11.40;;;;;;;20.97;87.37;99240.41;5132452;27;20039;-51
2022/06/10 04:19:27;;;;;;;12.00;9.77;;;;;;;21.01;87.25;99236.53;5134143;27;20035;-55
2022/06/10 04:21:54;;;;;;;13.30;10.50;;;;;;;21.05;87.00;99237.94;5121487;27;20046;-52
2022/06/10 04:24:20;;;;;;;15.98;10.55;;;;;;;21.11;87.19;99233.94;5114501;27;20042;-50
2022/06/10 04:26:46;;;;;;;11.73;9.35;;;;;;;21.11;87.30;99236.59;5133022;27;20528;-51
2022/06/10 04:29:15;;;;;;;12.20;8.93;;;;;;;21.21;86.65;99239.31;5131705;27;20039;-51
2022/06/10 04:31:42;;;;;;;19.00;10.43;;;;;;;21.27;86.28;99244.94;5115405;27;20035;-53
2022/06/10 04:34:08;;;;;;;12.85;10.20;;;;;;;21.35;85.39;99245.13;5128358;27;20525;-49
2022/06/10 04:36:33;;;;;;;13.85;9.13;;;;;;;21.43;84.64;99241.81;5119925;27;20061;-48
2022/06/10 04:38:59;;;;;;;12.13;9.63;;;;;;;21.47;83.90;99240.56;5123423;27;20048;-51
2022/06/10 04:41:25;;;;;;;11.48;9.27;;;;;;;21.56;82.49;99245.09;5145440;27;20519;-49
2022/06/10 04:43:50;;;;;;;13.50;9.52;;;;;;;21.60;82.25;99245.66;5123794;27;20498;-49
2022/06/10 04:46:25;;;;;;;12.95;10.52;;;;;;;21.59;82.18;99238.69;5118992;27;20123;-52
2022/06/10 04:48:51;;;;;;;10.48;8.73;;;;;;;21.68;81.04;99245.81;5128748;27;20043;-52
2022/06/10 04:51:17;;;;;;;13.07;8.85;;;;;;;21.73;80.32;99239.16;5095510;27;20092;-50
2022/06/10 04:53:42;;;;;;;10.73;9.30;;;;;;;21.78;79.78;99236.09;5127223;27;20476;-50
2022/06/10 04:56:08;;;;;;;11.20;8.55;;;;;;;21.83;79.31;99237.38;5113648;27;20058;-49
2022/06/10 04:58:34;;;;;;;12.45;9.27;;;;;;;21.89;78.86;99230.72;5126972;27;20043;-53
2022/06/10 05:01:00;;;;;;;10.82;8.40;;;;;;;21.96;77.86;99235.38;5123450;27;20036;-48
2022/06/10 05:03:26;;;;;;;11.57;8.30;;;;;;;22.18;76.44;99242.25;5129580;27;20498;-50
2022/06/10 05:05:51;;;;;;;11.13;8.60;;;;;;;22.37;74.99;99252.03;5130175;27;20085;-52
2022/06/10 05:08:18;;;;;;;11.18;8.15;;;;;;;22.50;73.80;99252.63;5114290;27;20059;-53
2022/06/10 05:10:45;;;;;;;10.35;8.60;;;;;;;22.67;72.98;99251.91;5126187;27;20073;-53
2022/06/10 05:13:10;;;;;;;12.18;8.35;;;;;;;22.92;71.22;99250.53;5132899;27;20031;-51
2022/06/10 05:15:36;;;;;;;11.15;7.85;;;;;;;23.19;69.46;99249.78;5130672;27;20112;-49
2022/06/10 05:18:03;;;;;;;8.43;7.53;;;;;;;23.38;68.17;99254.22;5132148;27;20043;-48
2022/06/10 05:20:38;;;;;;;9.60;7.97;;;;;;;23.58;66.96;99251.38;5130472;27;20039;-50
2022/06/10 05:23:05;;;;;;;8.82;7.20;;;;;;;23.66;66.26;99261.25;5128287;27;20081;-51
2022/06/10 05:25:31;;;;;;;9.40;7.75;;;;;;;23.68;66.09;99261.94;5124092;27;20042;-48
2022/06/10 05:27:57;;;;;;;10.98;8.15;;;;;;;23.81;65.54;99262.47;5132025;27;20038;-49
2022/06/10 05:30:26;;;;;;;11.85;8.20;;;;;;;23.95;64.48;99263.78;5113660;27;20115;-56
2022/06/10 05:32:52;;;;;;;8.73;7.80;;;;;;;24.06;63.54;99269.75;5111899;28;20035;-53
2022/06/10 05:35:18;;;;;;;11.02;8.25;;;;;;;24.12;63.26;99263.00;5112027;28;20041;-51
2022/06/10 05:37:46;;;;;;;9.45;7.90;;;;;;;24.07;63.35;99259.97;5112099;28;20039;-53
2022/06/10 05:40:14;;;;;;;8.98;7.30;;;;;;;24.02;62.65;99263.03;5116490;27;20065;-47
2022/06/10 05:42:39;;;;;;;9.80;7.53;;;;;;;24.02;62.80;99259.56;5128800;27;20061;-48
2022/06/10 05:45:06;;;;;;;9.55;7.75;;;;;;;24.01;62.89;99266.69;5129889;27;20038;-51
2022/06/10 05:47:34;;;;;;;8.52;6.72;;;;;;;24.01;62.16;99261.38;5128999;27;20046;-50
2022/06/10 05:50:11;;;;;;;8.10;7.28;;;;;;;24.00;61.38;99264.19;5131585;27;20064;-49
2022/06/10 05:52:37;;;;;;;8.27;7.47;;;;;;;23.99;60.93;99266.00;5131473;27;20038;-50
2022/06/10 05:55:05;;;;;;;12.80;7.55;;;;;;;24.00;60.58;99251.75;5129681;27;20062;-52
2022/06/10 05:57:31;;;;;;;8.13;6.97;;;;;;;23.99;60.35;99254.53;5129841;27;20043;-51
2022/06/10 05:59:58;;;;;;;8.77;7.75;;;;;;;24.04;59.78;99263.72;5123782;27;20225;-50
2022/06/10 06:02:24;;;;;;;10.82;7.60;;;;;;;24.10;59.72;99261.47;5112665;28;20396;-50
2022/06/10 06:04:50;;;;;;;8.55;7.35;;;;;;;24.16;59.59;99260.88;5126368;27;20043;-52
2022/06/10 06:07:23;;;;;;;11.80;8.02;;;;;;;24.32;60.22;99269.91;5119718;28;20514;-50
2022/06/10 06:09:49;;;;;;;9.73;7.72;;;;;;;24.41;59.19;99260.19;5112411;28;20039;-49
2022/06/10 06:12:14;;;;;;;11.40;8.02;;;;;;;24.46;59.26;99266.72;5124351;28;20087;-47
2022/06/10 06:14:40;;;;;;;7.60;6.90;;;;;;;24.63;57.73;99282.81;5112318;28;20059;-50
2022/06/10 06:17:06;;;;;;;10.25;8.10;;;;;;;24.64;57.55;99280.03;5116282;28;20043;-47
2022/06/10 06:19:33;;;;;;;8.98;8.07;;;;;;;24.79;57.45;99270.53;5117083;27;20074;-51
2022/06/10 06:21:59;;;;;;;9.70;7.65;;;;;;;25.01;56.58;99271.91;5110093;28;20419;-49
2022/06/10 06:24:25;;;;;;;9.68;8.10;;;;;;;25.28;56.06;99276.22;5113186;28;20035;-48
2022/06/10 06:26:52;;;;;;;10.07;8.52;;;;;;;25.69;55.15;99272.88;5123287;28;20043;-51
2022/06/10 06:29:19;;;;;;;13.85;8.68;;;;;;;26.04;55.30;99269.19;5134192;27;20076;-51
2022/06/10 06:31:44;;;;;;;10.73;8.60;;;;;;;26.40;54.75;99275.16;5129550;27;20071;-50
2022/06/10 06:34:10;;;;;;;9.50;8.00;;;;;;;26.60;53.09;99274.84;5115057;28;20039;-48
2022/06/10 06:36:45;;;;;;;8.30;7.00;;;;;;;26.49;52.50;99279.50;5115281;27;20028;-50
2022/06/10 06:39:12;;;;;;;9.98;8.13;;;;;;;26.59;51.76;99252.69;5123549;27;20049;-48
2022/06/10 06:41:38;;;;;;;9.13;8.20;;;;;;;26.75;51.72;99258.03;5119210;27;20059;-48
2022/06/10 06:44:05;;;;;;;9.80;8.68;;;;;;;27.44;50.64;99278.03;5121872;27;20035;-49
2022/06/10 06:46:35;;;;;;;10.10;7.95;;;;;;;28.01;48.22;99275.22;5123779;27;20045;-49
2022/06/10 06:49:03;;;;;;;10.20;9.20;;;;;;;29.12;46.58;99268.53;5120098;27;20084;-51
2022/06/10 06:51:29;;;;;;;10.35;8.18;;;;;;;29.21;46.30;99267.44;5130761;27;20038;-50
2022/06/10 06:53:54;;;;;;;9.02;7.20;;;;;;;29.77;43.94;99262.53;5123215;27;20043;-52
2022/06/10 06:56:20;;;;;;;9.70;7.63;;;;;;;30.93;42.66;99257.88;5127029;27;20035;-49
2022/06/10 06:58:47;;;;;;;10.90;7.63;;;;;;;32.11;39.78;99270.50;5121674;27;20101;-49
2022/06/10 07:01:12;;;;;;;9.25;6.95;;;;;;;33.08;37.87;99261.00;5114595;27;20712;-49
2022/06/10 07:03:38;;;;;;;8.23;7.43;;;;;;;33.72;36.03;99263.06;5118409;27;20099;-48
2022/06/10 07:06:04;;;;;;;9.43;7.40;;;;;;;34.42;34.26;99269.44;5129406;27;20031;-50
2022/06/10 07:08:33;;;;;;;11.10;7.03;;;;;;;35.22;33.12;99267.88;5122613;27;20516;-46
2022/06/10 07:11:04;;;;;;;8.50;7.07;;;;;;;35.79;32.43;99274.81;5122718;27;20031;-47
2022/06/10 07:13:29;;;;;;;9.52;7.72;;;;;;;36.58;30.48;99265.72;5122419;27;20048;-47
2022/06/10 07:15:57;;;;;;;8.68;7.10;;;;;;;36.87;30.35;99272.16;5121840;27;20039;-50
2022/06/10 07:18:23;;;;;;;8.25;7.30;;;;;;;37.17;29.67;99274.81;5132773;27;20043;-49
2022/06/10 07:20:49;;;;;;;6.78;6.15;;;;;;;35.80;30.80;99273.75;5129365;27;20192;-48
2022/06/10 07:23:15;;;;;;;7.82;7.13;;;;;;;35.80;30.52;99278.38;5103457;27;20053;-49
2022/06/10 07:25:42;;;;;;;8.85;6.70;;;;;;;35.94;30.24;99274.44;5119734;27;20039;-51
2022/06/10 07:28:14;;;;;;;12.45;6.43;;;;;;;36.33;29.44;99279.38;5123081;27;20433;-50
2022/06/10 07:30:41;;;;;;;7.45;6.75;;;;;;;36.83;29.00;99279.94;5113629;27;20426;-50
2022/06/10 07:33:07;;;;;;;8.37;7.10;;;;;;;38.33;26.90;99280.16;5124148;27;20043;-52
2022/06/10 07:35:34;;;;;;;11.77;8.73;;;;;;;38.98;26.05;99263.44;5125330;27;20039;-52
2022/06/10 07:38:00;;;;;;;8.47;7.00;;;;;;;38.99;24.96;99279.47;5120737;27;20047;-49
2022/06/10 07:43:13;;;;;;;6.93;6.32;;;;;;;40.47;23.34;99271.50;5117780;27;20419;-50
2022/06/10 07:45:39;;;;;;;10.75;6.68;;;;;;;41.39;22.20;99276.72;5124329;27;20171;-46
2022/06/10 07:48:06;;;;;;;7.78;7.00;;;;;;;42.10;21.87;99282.59;5119981;27;20135;-48
2022/06/10 07:50:32;;;;;;;9.73;6.68;;;;;;;42.76;20.59;99286.38;5132245;27;20518;-49
2022/06/10 07:52:58;;;;;;;10.57;6.53;;;;;;;43.21;20.04;99280.09;5123215;27;20043;-51
2022/06/10 07:55:24;;;;;;;8.52;5.80;;;;;;;42.39;20.57;99278.34;5126487;27;20066;-49
2022/06/10 07:57:50;;;;;;;7.78;7.00;;;;;;;42.29;20.34;99281.06;5128643;27;20516;-49
2022/06/10 08:00:16;;;;;;;8.25;6.40;;;;;;;43.06;19.83;99274.59;5123988;27;20042;-50
2022/06/10 08:02:42;;;;;;;8.80;6.53;;;;;;;42.95;19.63;99278.44;5127215;27;20479;-48
2022/06/10 08:05:13;;;;;;;7.43;6.28;;;;;;;42.51;19.75;99265.22;5125103;27;20130;-48
2022/06/10 08:07:39;;;;;;;7.70;7.00;;;;;;;41.62;20.85;99268.13;5131918;27;20039;-49
2022/06/10 08:10:07;;;;;;;7.60;6.90;;;;;;;42.50;20.69;99271.78;5123693;27;20052;-47
2022/06/10 08:12:32;;;;;;;7.43;5.95;;;;;;;41.92;20.21;99269.41;5126069;27;20035;-49
2022/06/10 08:14:58;;;;;;;7.15;6.55;;;;;;;42.31;20.30;99265.19;5121409;27;20104;-49
2022/06/10 08:17:24;;;;;;;9.00;7.47;;;;;;;41.06;21.65;99261.47;5120482;27;20426;-46
2022/06/10 08:19:50;;;;;;;8.23;6.15;;;;;;;39.83;22.53;99265.84;5133872;27;20107;-51
2022/06/10 08:25:05;;;;;;;8.20;6.97;;;;;;;39.67;22.90;99264.78;5114173;27;20067;-49
2022/06/10 08:27:32;;;;;;;6.85;5.88;;;;;;;41.05;21.24;99273.44;5125614;27;20039;-48
2022/06/10 08:29:58;;;;;;;6.78;6.18;;;;;;;42.19;19.70;99262.66;5119541;27;20063;-47
2022/06/10 08:32:24;;;;;;;7.50;5.60;;;;;;;42.76;18.15;99266.41;5120022;27;20031;-49
2022/06/10 08:34:50;;;;;;;7.72;6.40;;;;;;;43.44;18.21;99265.00;5132459;27;20042;-46
2022/06/10 08:37:16;;;;;;;6.68;6.07;;;;;;;43.98;17.09;99281.56;5126862;27;20566;-50
2022/06/10 08:39:42;;;;;;;8.15;6.45;;;;;;;43.97;17.15;99274.44;5129055;27;20047;-46
2022/06/10 08:42:29;;;;;;;9.70;6.55;;;;;;;44.29;17.34;99282.28;5124496;27;20063;-45
2022/06/10 08:44:58;;;;;;;6.03;5.60;;;;;;;44.31;16.21;99271.84;5114919;27;20055;-48
2022/06/10 08:47:37;;;;;;;6.90;6.28;;;;;;;44.59;16.31;99284.03;5110610;27;20569;-48
2022/06/10 08:50:57;;;;;;;9.40;5.90;;;;;;;45.38;15.95;99278.16;5104047;27;20043;-48
2022/06/10 08:53:37;;;;;;;5.82;5.43;;;;;;;45.43;15.31;99269.94;5082964;28;20092;-49
2022/06/10 08:56:26;;;;;;;6.00;5.20;;;;;;;45.75;15.02;99274.75;5119055;27;20051;-50
2022/06/10 08:59:11;;;;;;;6.38;5.72;;;;;;;45.84;14.87;99274.97;5115226;27;20160;-48
2022/06/10 09:02:09;;;;;;;8.10;6.28;;;;;;;46.30;14.36;99276.03;5123336;27;20074;-54
2022/06/10 09:04:44;;;;;;;6.32;5.72;;;;;;;46.66;13.98;99270.03;5097802;27;20051;-47
2022/06/10 09:07:26;;;;;;;6.35;5.75;;;;;;;46.98;13.99;99272.00;5117128;27;20130;-49
2022/06/10 09:09:52;;;;;;;7.22;6.53;;;;;;;46.82;14.13;99279.66;5108015;27;20050;-46
2022/06/10 09:12:46;;;;;;;6.10;5.60;;;;;;;47.21;13.90;99281.25;5130267;27;20035;-46
2022/06/10 09:15:13;;;;;;;6.47;6.00;;;;;;;47.26;13.69;99275.66;5112005;27;20049;-46
2022/06/10 09:17:45;;;;;;;6.20;5.60;;;;;;;47.29;13.22;99266.78;5112935;27;20043;-51
2022/06/10 09:20:32;;;;;;;6.25;5.75;;;;;;;47.08;13.69;99267.13;5118723;27;20040;-48
2022/06/10 09:23:04;;;;;;;6.97;6.33;;;;;;;46.26;14.37;99269.50;5114315;27;20055;-47
2022/06/10 09:25:33;;;;;;;6.30;5.80;;;;;;;46.84;13.67;99271.94;5112922;27;20054;-49
2022/06/10 09:28:01;;;;;;;11.68;7.30;;;;;;;47.14;13.58;99273.38;5120027;27;20043;-52
2022/06/10 09:30:31;;;;;;;6.68;6.25;;;;;;;47.64;13.64;99271.66;5127367;27;20095;-47
2022/06/10 09:33:11;;;;;;;6.82;6.20;;;;;;;47.48;13.40;99271.09;5113060;27;20103;-48
2022/06/10 09:35:58;;;;;;;7.18;6.68;;;;;;;47.03;13.91;99267.22;5130087;27;20047;-49
2022/06/10 09:38:47;;;;;;;6.90;6.20;;;;;;;47.03;13.73;99263.66;5148115;27;20053;-46
2022/06/10 09:41:55;;;;;;;6.40;6.00;;;;;;;47.25;13.55;99255.53;5129833;27;20047;-49
2022/06/10 09:44:50;;;;;;;8.55;6.50;;;;;;;47.79;13.32;99265.03;5109684;27;20071;-47
2022/06/10 09:47:31;;;;;;;7.05;6.45;;;;;;;47.50;13.04;99263.34;5095239;28;20055;-47
2022/06/10 09:50:32;;;;;;;6.55;6.10;;;;;;;47.56;13.30;99264.06;5111546;28;20131;-49
2022/06/10 09:53:14;;;;;;;8.35;6.05;;;;;;;47.68;13.17;99267.19;5102402;27;20039;-47
2022/06/10 09:56:02;;;;;;;7.13;6.53;;;;;;;47.56;13.16;99261.31;5111951;27;20039;-48
2022/06/10 09:59:05;;;;;;;7.28;5.32;;;;;;;45.74;14.27;99261.34;5114731;27;20067;-48
2022/06/10 10:01:39;;;;;;;5.40;4.82;;;;;;;45.39;14.42;99246.03;5129658;27;20051;-48
2022/06/10 10:04:24;;;;;;;6.15;5.57;;;;;;;45.87;14.56;99244.16;5129812;27;20043;-48
2022/06/10 10:06:53;;;;;;;6.15;5.55;;;;;;;46.61;13.96;99246.16;5119582;27;20047;-49
2022/06/10 10:09:34;;;;;;;6.55;6.05;;;;;;;47.14;13.51;99256.84;5111964;28;20035;-49
2022/06/10 10:12:12;;;;;;;6.32;5.93;;;;;;;47.38;13.37;99257.53;5116395;28;20532;-49
2022/06/10 10:14:47;;;;;;;6.80;6.20;;;;;;;46.02;14.01;99262.38;5128475;28;20132;-47
2022/06/10 10:17:50;;;;;;;7.30;6.60;;;;;;;46.30;13.93;99250.47;5125032;28;20048;-48
2022/06/10 10:20:44;;;;;;;6.35;5.78;;;;;;;46.69;13.49;99261.19;5113207;28;20082;-48
2022/06/10 10:23:22;;;;;;;6.53;6.03;;;;;;;45.68;14.43;99263.31;5122180;28;20156;-47
2022/06/10 10:25:49;;;;;;;6.18;5.78;;;;;;;45.97;14.11;99258.56;5112488;28;20514;-44
2022/06/10 10:28:20;;;;;;;6.45;5.95;;;;;;;46.68;13.84;99256.78;5115054;28;20051;-44
2022/06/10 10:31:13;;;;;;;6.78;6.10;;;;;;;47.08;13.07;99261.63;5105641;28;20071;-44
2022/06/10 10:33:39;;;;;;;7.03;6.43;;;;;;;47.27;13.38;99253.31;5099600;28;20090;-49
2022/06/10 10:36:12;;;;;;;5.03;4.57;;;;;;;46.67;13.88;99252.41;5122872;27;20063;-45
2022/06/10 10:38:41;;;;;;;5.57;5.00;;;;;;;44.56;15.40;99249.75;5124410;28;20074;-44
2022/06/10 10:41:25;;;;;;;8.40;7.70;;;;;;;44.64;15.10;99256.56;5126968;27;20526;-45
2022/06/10 10:43:55;;;;;;;9.27;6.35;;;;;;;45.90;14.79;99255.41;5126625;28;20047;-44
2022/06/10 10:46:54;;;;;;;6.57;5.97;;;;;;;46.80;14.20;99248.88;5129971;28;20418;-42
2022/06/10 10:49:35;;;;;;;6.70;6.20;;;;;;;47.15;13.61;99251.06;5130166;28;20143;-43
2022/06/10 10:52:27;;;;;;;6.78;6.13;;;;;;;47.38;13.34;99265.78;5124903;28;20043;-43
2022/06/10 10:54:56;;;;;;;6.15;5.65;;;;;;;47.65;13.58;99264.19;5119770;28;20043;-45
2022/06/10 10:57:32;;;;;;;6.57;5.70;;;;;;;47.17;13.93;99250.72;5127623;28;20039;-44
2022/06/10 11:00:12;;;;;;;6.32;5.82;;;;;;;47.05;13.45;99247.66;5122192;28;20061;-47
2022/06/10 11:02:38;;;;;;;6.68;6.07;;;;;;;47.24;13.04;99253.91;5124014;28;20035;-46
2022/06/10 11:05:23;;;;;;;5.85;5.30;;;;;;;46.06;13.46;99246.94;5129636;28;20047;-46
2022/06/10 11:08:13;;;;;;;5.05;4.50;;;;;;;45.30;13.79;99258.75;5121935;27;20045;-45
2022/06/10 11:11:00;;;;;;;11.65;6.43;;;;;;;45.56;14.25;99254.66;5125587;27;20059;-49
2022/06/10 11:13:49;;;;;;;5.78;5.38;;;;;;;46.52;13.81;99260.88;5140829;27;20103;-48
2022/06/10 11:16:17;;;;;;;6.70;6.05;;;;;;;46.74;13.82;99258.34;5123849;27;20107;-46
2022/06/10 11:18:46;;;;;;;4.47;4.05;;;;;;;44.69;14.54;99253.81;5133919;27;20036;-45
2022/06/10 11:21:12;;;;;;;5.75;5.30;;;;;;;44.30;15.40;99238.13;5114807;27;20092;-49
2022/06/10 11:23:49;;;;;;;24.10;16.30;;;;;;;45.26;14.87;99257.72;5127731;27;20123;-45
2022/06/10 11:26:17;;;;;;;;;;;;;;;45.86;14.57;99254.31;5123411;27;20145;-45
2022/06/10 11:28:44;;;;;;;6.47;5.93;;;;;;;46.11;13.86;99249.63;5126132;27;19976;-45
2022/06/10 11:31:23;;;;;;;6.10;5.65;;;;;;;46.52;13.47;99264.44;5132126;27;20065;-43
2022/06/10 11:33:52;;;;;;;11.75;8.50;;;;;;;46.78;13.67;99253.88;5132437;27;20039;-47
2022/06/10 11:36:26;;;;;;;7.78;5.22;;;;;;;46.89;13.68;99254.53;5133064;27;20510;-45
2022/06/10 11:39:19;;;;;;;5.82;5.43;;;;;;;47.17;13.80;99258.97;5131641;27;20039;-43
2022/06/10 11:42:09;;;;;;;5.70;5.20;;;;;;;47.23;13.11;99260.53;5137229;27;20055;-44
2022/06/10 11:44:42;;;;;;;5.85;5.45;;;;;;;46.62;13.26;99253.31;5130243;27;20140;-44
2022/06/10 11:47:28;;;;;;;5.55;5.22;;;;;;;46.51;13.12;99254.53;5113016;27;20188;-44
2022/06/10 11:50:19;;;;;;;6.10;5.70;;;;;;;46.89;13.09;99252.59;5132024;27;20414;-44
2022/06/10 11:53:03;;;;;;;7.20;3.72;;;;;;;45.78;13.92;99241.22;5125852;27;20095;-44
2022/06/10 11:55:35;;;;;;;7.60;4.43;;;;;;;43.54;15.47;99240.38;5126132;27;20557;-46
2022/06/10 12:01:24;;;;;;;5.60;5.07;;;;;;;40.93;17.88;99235.41;5133034;27;20096;-46
2022/06/10 12:04:01;;;;;;;5.72;5.22;;;;;;;41.22;16.88;99227.75;5133829;27;20574;-47
2022/06/10 12:06:29;;;;;;;;;;;;;;;42.38;16.34;99232.13;5127897;27;20095;-44